Lakeside, MI (49116)

3:06 AM EDT on August 05, 2015 (GMT -0400)
NW Three Oaks Twnshp | | Change Station
CLOSE
Current Station
Personal Weather Station
Location: Three Oaks, MI
Elevation: 663 ft
Nearby Weather Stations

Elev 663 ft 41.81 °N, 86.63 °W | Updated 15 seconds ago

Clear
Clear
57.9 °F
Feels Like 57.9 °F
N
0.0
Wind Variable Wind from WSW
Gusts 0.0 mph

Today
High -- | Low -- °F
--% Chance of Precip.
Yesterday
High -- | Low -- °F
Precip. -- in
6:44 AM 9:00 PM
Waning Gibbous, 70% visible
Pressure 30.03 in
Visibility 1.2 miles
Clouds
Dew Point 58 °F
Humidity 99%
Rainfall 0.00 in
Snow Depth Not available.
UV 0.0 out of 12
Pollen 7.80 out of 12
Air Quality Not available.
Flu Activity Not available.
METAR KMGC 050655Z AUTO 00000KT 1 1/4SM BR VV007 14/14 A3003 RMK AO2 VIS 1/2V5

More Conditions Fewer Conditions

Pressure 30.03 in
Visibility 1.2 miles
Clouds
Dew Point 58 °F
Humidity 99%
Rainfall 0.00 in
Snow Depth Not available.
UV 0.0 out of 12
Pollen 7.80 out of 12
Air Quality Not available.
Flu Activity Not available.
METAR KMGC 050655Z AUTO 00000KT 1 1/4SM BR VV007 14/14 A3003 RMK AO2 VIS 1/2V5

More Conditions Fewer Conditions

10-Day Weather Forecast

×

Almanac

Astronomy

Aug. 05, 2015 Rise Set
Actual Time
Civil Twilight
Nautical Twilight
Astronomical Twilight
Moon
Length of Visible Light
Length of Day
Tomorrow will be .
, % of the Moon is Illuminated

Today's Extremes

State Highs State Lows

Community

WunderPhotos

Upload Photos

1,844,105 photos uploaded!

WunderBlogs® & News

Nearby

Air Quality

  Air Quality AQ Index Pollutant
Not available.

Snow Depth

Station Depth Elevation

Earthquake Activity

City Distance Mag. Time & Date
Minimum magnitude displayed is 2.5.

Coastal Water Temperatures

Place Temperature

Stations

Nearby Weather Stations

Station Location Temp. Windchill Dew Point Humidity Wind Precip. Elev Updated Type